Flight Track Log - Related Links

Times and Time Zones

All times are in EDT time to prevent confusion due to time zone crossing. See the TCF3444 flight status page for this flight to view local times or setup timezone preferences in your user account.

Time Position Orientation Groundspeed Altitude Reporting Facility
EDT Latitude Longitude Course Direction KTS MPH feet Rate Location/Type
Sun 05:18:40 PM 39.9333 -104.6500 75° East 196 226 7,400  Level Denver TRACON
Sun 05:19:40 PM 39.9833 -104.5833 46° Northeast 275 316 9,100 1,950 Climbing Denver TRACON
Sun 05:20:40 PM 40.0000 -104.4833 78° East 309 356 11,300 2,423 Climbing Denver TRACON
Sun 05:22:16 PM 40.0047 -104.2761 88° East 352 405 15,400 2,468 Climbing Denver Center
Sun 05:23:18 PM 40.0092 -104.1417 87° East 371 427 17,800 2,274 Climbing Denver Center
Sun 05:24:00 PM 39.9685 -103.9742 75° East  Level FlightAware Approximate
Sun 05:24:20 PM 40.0136 -104.0022 88° East 386 444 20,100  Level Denver Center
Sun 05:25:22 PM 40.0186 -103.8456 88° East 400 460 22,300 2,032 Climbing Denver Center
Sun 05:26:24 PM 40.0306 -103.7006 84° East 403 464 24,300 1,790 Climbing Denver Center
Sun 05:27:26 PM 40.0569 -103.5508 77° East 418 481 26,000 1,610 Climbing Denver Center
Sun 05:28:27 PM 40.0819 -103.3956 78° East 432 497 27,600 1,463 Climbing Denver Center
Sun 05:29:29 PM 40.1072 -103.2369 78° East 441 507 29,000 1,306 Climbing Denver Center
Sun 05:30:31 PM 40.1339 -103.0753 78° East 449 517 30,300 1,258 Climbing Denver Center
Sun 05:31:33 PM 40.1644 -102.8847 78° East 454 522 31,600 1,306 Climbing Denver Center
Sun 05:32:35 PM 40.1875 -102.7192 80° East 458 527 33,000 683 Climbing Denver Center
Sun 05:33:36 PM 40.2128 -102.5675 78° East 457 526 33,000  Level Denver Center
Sun 05:34:38 PM 40.2403 -102.3856 79° East 456 525 33,000  Level Denver Center
Sun 05:35:40 PM 40.2639 -102.2283 79° East 460 529 33,000  Level Denver Center
Sun 05:36:42 PM 40.2919 -102.0464 79° East 458 527 33,000  Level Denver Center
Sun 05:37:44 PM 40.3153 -101.8886 79° East 460 529 33,000  Level Denver Center
Sun 05:38:46 PM 40.3419 -101.7053 79° East 460 529 33,000  Level Denver Center
Sun 05:39:48 PM 40.3644 -101.5478 79° East 461 531 33,000  Level Denver Center
Sun 05:40:50 PM 40.3872 -101.3925 79° East 455 524 33,000  Level Denver Center
Sun 05:41:51 PM 40.4133 -101.2086 79° East 460 529 33,000  Level Denver Center
Sun 05:42:53 PM 40.4356 -101.0514 79° East 461 531 33,000  Level Denver Center
Sun 05:43:55 PM 40.4608 -100.8694 80° East 457 526 33,000  Level Denver Center
Sun 05:44:57 PM 40.4803 -100.7142 81° East 455 524 33,000  Level Denver Center
Sun 05:45:59 PM 40.5039 -100.5325 80° East 455 524 33,000  Level Denver Center
Sun 05:47:01 PM 40.5236 -100.3764 81° East 456 525 33,000  Level Denver Center
Sun 05:48:03 PM 40.5467 -100.1936 81° East 456 525 33,000  Level Denver Center
Sun 05:49:04 PM 40.5664 -100.0381 80° East 454 522 33,000  Level Denver Center
Sun 05:50:06 PM 40.5892 -99.8500 81° East 460 529 33,000  Level Denver Center
Sun 05:51:08 PM 40.6094 -99.6858 81° East 457 526 33,000  Level Denver Center
Sun 05:52:10 PM 40.6286 -99.5208 81° East 457 526 33,000  Level Denver Center
Sun 05:53:24 PM 40.6525 -99.3247 81° East 455 524 33,000  Level Denver Center
Sun 05:54:26 PM 40.6708 -99.1592 82° East 459 528 33,000  Level Denver Center
Sun 05:55:28 PM 40.6933 -98.9606 81° East 460 529 33,000  Level Denver Center
Sun 05:56:26 PM 40.7081 -98.8300 81° East 458 527 33,000  Level Minneapolis Center
Sun 05:57:27 PM 40.7297 -98.6350 82° East 454 522 33,000  Level Minneapolis Center
Sun 05:58:29 PM 40.7481 -98.4722 81° East 452 520 33,000  Level Minneapolis Center
Sun 05:59:30 PM 40.7664 -98.3083 82° East 454 522 33,000  Level Minneapolis Center
Sun 06:00:32 PM 40.7836 -98.1444 82° East 454 522 33,000  Level Minneapolis Center
Sun 06:01:34 PM 40.8008 -97.9797 82° East 455 524 33,000  Level Minneapolis Center
Sun 06:02:35 PM 40.8181 -97.8136 82° East 456 525 33,000  Level Minneapolis Center
Sun 06:03:37 PM 40.8350 -97.6486 82° East 456 525 33,000  Level Minneapolis Center
Sun 06:04:38 PM 40.8547 -97.4503 82° East 456 525 33,000  Level Minneapolis Center
Sun 06:05:40 PM 40.8706 -97.2842 83° East 455 524 33,000  Level Minneapolis Center
Sun 06:06:41 PM 40.8875 -97.1178 82° East 456 525 33,000 -244 Level Minneapolis Center
Sun 06:07:43 PM 40.9033 -96.9528 83° East 456 525 32,500 -829 Descending Minneapolis Center
Sun 06:08:44 PM 40.9197 -96.7853 83° East 458 527 31,300 -732 Descending Minneapolis Center
Sun 06:09:46 PM 40.9436 -96.6197 79° East 460 529 31,000 -145 Descending Minneapolis Center
Sun 06:10:48 PM 40.9742 -96.4561 76° East 461 531 31,000  Level Minneapolis Center
Sun 06:11:49 PM 41.0031 -96.2900 77° East 461 531 31,000  Level Minneapolis Center
Sun 06:12:51 PM 41.0375 -96.0981 77° East 457 526 31,000  Level Minneapolis Center
Sun 06:13:52 PM 41.0650 -95.9353 77° East 458 527 31,000  Level Minneapolis Center
Sun 06:14:54 PM 41.0933 -95.7739 77° East 456 525 31,000 -774 Level Minneapolis Center
Sun 06:15:56 PM 41.1214 -95.6119 77° East 455 524 29,400 -1,902 Descending Minneapolis Center
Sun 06:16:57 PM 41.1361 -95.4525 83° East 444 511 27,100 -2,244 Descending Minneapolis Center
Sun 06:17:59 PM 41.1342 -95.2978 91° East 425 489 24,800 -2,390 Descending Minneapolis Center
Sun 06:19:00 PM 41.1356 -95.1156 89° East 416 479 22,200 -2,293 Descending Minneapolis Center
Sun 06:20:02 PM 41.1561 -94.9781 79° East 388 447 20,100 -1,897 Descending Minneapolis Center
Sun 06:21:16 PM 41.1858 -94.8450 73° East 379 436 17,900 -1,985 Descending Minneapolis Center
Sun 06:22:18 PM 41.2192 -94.6881 74° East 371 427 15,600 -2,250 Descending Minneapolis Center
Sun 06:22:44 PM 41.2422 -94.6075 69° East 364 419 14,600 -1,967 Descending Minneapolis Center
Sun 06:23:19 PM 41.2497 -94.5494 80° East 362 417 13,600 -1,770 Descending Minneapolis Center
Sun 06:23:45 PM 41.2681 -94.4836 70° East 349 402 12,800 -1,548 Descending Minneapolis Center
Sun 06:24:21 PM 41.2767 -94.4206 80° East 337 388 12,000 -787 Descending Minneapolis Center
Sun 06:24:46 PM 41.2919 -94.3683 69° East 335 386 12,000 -290 Level Minneapolis Center
Sun 06:25:23 PM 41.3106 -94.3125 66° East 318 366 11,700 -1,100 Descending Minneapolis Center
Sun 06:25:46 PM 41.3461 -94.2753 38° Northeast 327 376 10,900 -1,672 Descending Minneapolis Center
Sun 06:26:24 PM 41.3764 -94.2328 46° Northeast 314 361 10,000 -1,574 Descending Minneapolis Center
Sun 06:26:47 PM 41.4069 -94.1925 45° Northeast 310 357 9,300 -1,742 Descending Minneapolis Center
Sun 06:27:26 PM 41.4389 -94.1456 48° Northeast 302 348 8,200 -1,600 Descending Minneapolis Center
Sun 06:27:47 PM 41.4636 -94.1125 45° Northeast 300 345 7,700 -1,645 Descending Minneapolis Center
Sun 06:28:28 PM 41.4956 -94.0694 45° Northeast 291 335 6,500 -1,967 Descending Minneapolis Center
Sun 06:28:48 PM 41.5183 -94.0383 46° Northeast 289 333 5,700 -1,180 Descending Minneapolis Center
Sun 06:29:29 PM 41.5425 -93.9889 57° Northeast 277 319 5,300 -590 Descending Minneapolis Center
Sun 06:29:49 PM 41.5583 -93.9572 56° Northeast 259 298 5,100 -774 Descending Minneapolis Center
Sun 06:30:31 PM 41.5769 -93.9053 64° Northeast 243 280 4,500 -900 Descending Minneapolis Center
Sun 06:30:49 PM 41.5919 -93.8789 53° Northeast 224 258 4,200 -968 Descending Minneapolis Center
Sun 06:31:33 PM 41.6033 -93.8403 68° East 206 237 3,500 -1,180 Descending Minneapolis Center
Sun 06:31:50 PM 41.6156 -93.8100 62° Northeast 204 235 3,000 -968 Descending Minneapolis Center
Sun 06:32:35 PM 41.6086 -93.7689 103° East 194 223 2,500 -492 Descending Minneapolis Center
Sun 06:32:51 PM 41.6058 -93.7442 99° East 187 215 2,500  Level Minneapolis Center

Login

Don't have an account? Register now (free) for customized features, flight alerts, and more!